Time;durP1;ratioP1;P1;durP2;ratioP2;P2;SDS_P1;SDS_P2;PMS_P1;PMS_P2;Temp;Humidity;BMP_temperature;BMP_pressure;BME280_temperature;BME280_humidity;BME280_pressure;Samples;Min_cycle;Max_cycle;Signal;HPM_P1;HPM_P2
2021/06/19 00:00:16;;;;;;;14.28;6.00;;;;;;;19.67;84.87;99065.48;1659471;85;21144;-80
2021/06/19 00:02:45;;;;;;;8.37;5.80;;;;;;;19.58;85.53;99064.77;1661107;85;21106;-80
2021/06/19 00:05:14;;;;;;;11.20;5.62;;;;;;;19.51;85.42;99063.92;1660352;85;21137;-81
2021/06/19 00:07:41;;;;;;;13.55;5.78;;;;;;;19.44;85.15;99062.16;1648340;86;21095;-81
2021/06/19 00:10:09;;;;;;;13.78;6.53;;;;;;;19.32;83.15;99066.39;1662158;86;21083;-82
2021/06/19 00:12:37;;;;;;;12.98;8.28;;;;;;;19.20;85.33;99065.35;1662383;85;21083;-82
2021/06/19 00:15:11;;;;;;;20.50;7.97;;;;;;;19.17;85.51;99066.00;1655385;85;21123;-79
2021/06/19 00:17:38;;;;;;;12.58;6.20;;;;;;;19.14;85.58;99062.22;1652163;87;21034;-81
2021/06/19 00:20:14;;;;;;;12.07;6.10;;;;;;;19.11;85.79;99069.85;1677510;84;21098;-82
2021/06/19 00:22:41;;;;;;;9.48;5.87;;;;;;;19.04;87.31;99069.86;1675748;84;21058;-82
2021/06/19 00:25:10;;;;;;;10.13;5.37;;;;;;;19.05;85.82;99067.59;1683318;84;21015;-82
2021/06/19 00:27:38;;;;;;;9.80;5.15;;;;;;;19.01;86.23;99064.29;1694705;84;21034;-82
2021/06/19 00:30:08;;;;;;;10.13;5.22;;;;;;;18.98;86.94;99067.12;1688003;84;21514;-80
2021/06/19 00:32:35;;;;;;;14.55;6.35;;;;;;;18.94;86.72;99071.33;1686919;84;21581;-80
2021/06/19 00:35:04;;;;;;;14.38;6.72;;;;;;;18.94;87.06;99062.11;1679934;84;21078;-82
2021/06/19 00:37:32;;;;;;;13.35;6.95;;;;;;;18.94;86.72;99059.48;1687972;84;21570;-82
2021/06/19 00:40:00;;;;;;;8.40;5.50;;;;;;;18.92;86.18;99070.58;1678874;84;21049;-81
2021/06/19 00:42:27;;;;;;;10.80;5.78;;;;;;;18.92;86.48;99066.18;1689413;84;22229;-81
2021/06/19 00:44:56;;;;;;;11.10;5.95;;;;;;;18.88;88.25;99061.56;1677110;84;21145;-82
2021/06/19 00:47:25;;;;;;;9.10;5.50;;;;;;;18.85;87.76;99064.36;1674176;86;21015;-82
2021/06/19 00:49:52;;;;;;;14.13;5.80;;;;;;;18.81;88.67;99058.90;1673980;84;21054;-81
2021/06/19 00:52:19;;;;;;;11.68;5.75;;;;;;;18.77;89.76;99057.83;1692464;84;21042;-80
2021/06/19 00:54:47;;;;;;;12.65;5.62;;;;;;;18.76;88.29;99062.27;1642219;86;21165;-81
2021/06/19 00:57:14;;;;;;;8.83;5.35;;;;;;;18.77;87.99;99054.72;1639902;87;21070;-80
2021/06/19 00:59:43;;;;;;;8.75;4.62;;;;;;;18.81;87.84;99060.22;1648051;86;21514;-79
2021/06/19 01:02:09;;;;;;;10.97;5.60;;;;;;;18.78;87.86;99061.70;1668005;86;21038;-81
2021/06/19 01:04:36;;;;;;;9.25;5.60;;;;;;;18.77;86.49;99058.67;1685068;84;21153;-80
2021/06/19 01:07:03;;;;;;;10.50;5.85;;;;;;;18.75;86.82;99059.71;1686025;84;21026;-81
2021/06/19 01:09:30;;;;;;;14.58;5.90;;;;;;;18.71;85.89;99050.30;1675682;84;21035;-81
2021/06/19 01:11:56;;;;;;;13.35;5.72;;;;;;;18.63;87.19;99048.12;1670053;86;21014;-80
2021/06/19 01:14:24;;;;;;;12.13;6.33;;;;;;;18.59;87.56;99045.29;1670345;84;21114;-82
2021/06/19 01:16:51;;;;;;;22.30;5.90;;;;;;;18.57;87.51;99049.80;1682892;84;20967;-83
2021/06/19 01:19:18;;;;;;;11.30;4.35;;;;;;;18.54;86.23;99046.85;1678168;84;21030;-81
2021/06/19 01:21:44;;;;;;;9.63;4.80;;;;;;;18.45;85.80;99052.20;1661253;84;21060;-81
2021/06/19 01:24:16;;;;;;;9.95;5.10;;;;;;;18.34;87.84;99049.81;1680840;84;21011;-81
2021/06/19 01:26:43;;;;;;;9.15;4.70;;;;;;;18.27;88.21;99049.33;1676358;84;21058;-81
2021/06/19 01:29:10;;;;;;;14.07;5.37;;;;;;;18.18;89.03;99050.67;1687198;84;21122;-81
2021/06/19 01:31:38;;;;;;;10.60;5.00;;;;;;;18.16;86.97;99060.92;1674008;84;21043;-82
2021/06/19 01:34:05;;;;;;;12.20;5.30;;;;;;;18.09;86.53;99053.38;1688445;84;21583;-82
2021/06/19 01:36:32;;;;;;;15.50;4.97;;;;;;;18.02;86.14;99057.75;1645347;86;21125;-80
2021/06/19 01:38:59;;;;;;;12.23;5.00;;;;;;;17.95;87.12;99052.00;1684150;84;21542;-82
2021/06/19 01:41:30;;;;;;;9.15;5.55;;;;;;;17.90;87.46;99063.23;1651827;86;21019;-82
2021/06/19 01:44:07;;;;;;;13.22;5.72;;;;;;;17.84;86.51;99059.16;1671137;84;20995;-82
2021/06/19 01:46:39;;;;;;;10.40;5.37;;;;;;;17.77;87.45;99056.94;1639091;87;21051;-82
2021/06/19 01:49:05;;;;;;;10.78;5.40;;;;;;;17.72;87.12;99062.91;1642488;86;21066;-82
2021/06/19 01:51:32;;;;;;;16.93;5.72;;;;;;;17.72;87.20;99062.91;1669256;86;21109;-82
2021/06/19 01:53:59;;;;;;;9.90;5.65;;;;;;;17.73;87.63;99068.56;1674147;84;21054;-82
2021/06/19 01:56:26;;;;;;;11.20;6.28;;;;;;;17.75;87.90;99065.38;1656943;84;21028;-82
2021/06/19 01:58:53;;;;;;;9.30;6.50;;;;;;;17.78;89.06;99062.56;1665323;85;21008;-82
2021/06/19 02:01:20;;;;;;;17.85;6.22;;;;;;;17.80;88.74;99053.65;1668277;85;21115;-82
2021/06/19 02:03:49;;;;;;;14.40;7.08;;;;;;;17.79;88.55;99058.55;1663706;85;21131;-82
2021/06/19 02:06:16;;;;;;;12.80;7.17;;;;;;;17.80;87.72;99060.22;1599237;89;21118;-81
2021/06/19 02:08:51;;;;;;;15.40;6.87;;;;;;;17.82;89.81;99061.46;1612010;87;21086;-82
2021/06/19 02:11:18;;;;;;;15.78;7.90;;;;;;;17.84;91.34;99062.26;1586692;90;21086;-80
2021/06/19 02:13:44;;;;;;;15.00;7.22;;;;;;;17.85;91.58;99064.81;1636928;85;21044;-80
2021/06/19 02:16:10;;;;;;;11.65;6.97;;;;;;;17.85;89.38;99056.92;1655170;85;21042;-81
2021/06/19 02:18:37;;;;;;;12.78;7.03;;;;;;;17.85;91.39;99062.66;1666470;85;21115;-81
2021/06/19 02:21:04;;;;;;;13.22;6.58;;;;;;;17.85;90.33;99055.61;1665374;85;21919;-80
2021/06/19 02:23:30;;;;;;;17.95;6.35;;;;;;;17.84;89.94;99053.05;1612548;87;21062;-80
2021/06/19 02:25:57;;;;;;;12.00;6.97;;;;;;;17.84;90.34;99059.62;1650921;87;21523;-80
2021/06/19 02:28:25;;;;;;;10.78;6.85;;;;;;;17.83;90.70;99052.22;1650103;85;21031;-82
2021/06/19 02:30:55;;;;;;;12.70;7.22;;;;;;;17.82;91.76;99048.31;1667058;85;21007;-83
2021/06/19 02:33:23;;;;;;;13.78;8.08;;;;;;;17.79;91.23;99045.88;1659020;85;21004;-78
2021/06/19 02:35:51;;;;;;;16.37;8.30;;;;;;;17.77;89.97;99051.69;1610685;89;21098;-81
2021/06/19 02:38:20;;;;;;;17.95;8.88;;;;;;;17.73;89.75;99039.64;1668003;85;21460;-79
2021/06/19 02:40:49;;;;;;;15.93;8.03;;;;;;;17.74;90.43;99047.89;1612985;88;21104;-81
2021/06/19 02:43:18;;;;;;;15.40;8.28;;;;;;;17.72;90.98;99033.98;1673671;85;21670;-81
2021/06/19 02:45:45;;;;;;;17.25;8.10;;;;;;;17.67;89.90;99036.88;1649638;85;21019;-80
2021/06/19 02:48:12;;;;;;;15.72;7.78;;;;;;;17.65;89.66;99040.06;1669038;85;21052;-81
2021/06/19 02:50:41;;;;;;;14.80;7.40;;;;;;;17.62;89.71;99045.00;1658695;85;22187;-81
2021/06/19 02:53:09;;;;;;;10.68;7.17;;;;;;;17.62;90.17;99041.53;1612891;88;21047;-81
2021/06/19 02:55:38;;;;;;;17.80;6.75;;;;;;;17.60;90.60;99044.23;1652976;85;21043;-81
2021/06/19 02:58:06;;;;;;;12.10;6.37;;;;;;;17.61;90.43;99038.53;1648328;87;21054;-80
2021/06/19 03:00:33;;;;;;;11.03;5.28;;;;;;;17.62;90.73;99038.90;1648115;87;21547;-81
2021/06/19 03:03:00;;;;;;;9.80;4.50;;;;;;;17.63;90.47;99039.30;1672494;86;21066;-81
2021/06/19 03:05:29;;;;;;;9.68;4.90;;;;;;;17.64;89.86;99039.19;1672971;86;21383;-82
2021/06/19 03:07:56;;;;;;;11.03;5.05;;;;;;;17.67;90.09;99040.83;1652907;84;21003;-78
2021/06/19 03:10:27;;;;;;;8.03;5.28;;;;;;;17.67;89.92;99044.77;1682841;84;21550;-80
2021/06/19 03:12:54;;;;;;;12.37;5.87;;;;;;;17.63;90.51;99043.23;1647395;87;21557;-81
2021/06/19 03:15:21;;;;;;;12.73;5.70;;;;;;;17.61;89.84;99043.31;1672819;84;21078;-81
2021/06/19 03:17:48;;;;;;;8.45;5.50;;;;;;;17.62;89.51;99043.69;1676165;84;21090;-81
2021/06/19 03:20:16;;;;;;;11.33;5.75;;;;;;;17.63;88.70;99048.02;1680714;84;21139;-80
2021/06/19 03:22:58;;;;;;;11.12;5.83;;;;;;;17.63;90.62;99048.50;1673490;84;21020;-80
2021/06/19 03:25:37;;;;;;;9.68;4.90;;;;;;;17.59;91.09;99049.13;1674727;84;21046;-81
2021/06/19 03:28:06;;;;;;;9.85;5.37;;;;;;;17.57;89.65;99042.27;1696834;84;21034;-80
2021/06/19 03:30:37;;;;;;;11.53;5.37;;;;;;;17.56;90.02;99045.81;1677632;84;21046;-81
2021/06/19 03:33:06;;;;;;;9.28;5.60;;;;;;;17.54;88.53;99045.88;1678085;84;21027;-82
2021/06/19 03:35:33;;;;;;;13.60;5.53;;;;;;;17.50;89.71;99043.05;1687645;84;21173;-80
2021/06/19 03:37:59;;;;;;;15.03;5.70;;;;;;;17.51;89.48;99047.38;1681684;84;21058;-82
2021/06/19 03:40:29;;;;;;;13.62;5.15;;;;;;;17.49;90.22;99041.36;1681949;84;21007;-82
2021/06/19 03:42:55;;;;;;;11.63;5.05;;;;;;;17.52;90.34;99041.18;1695684;84;21125;-81
2021/06/19 03:45:26;;;;;;;10.05;5.17;;;;;;;17.55;89.47;99042.34;1664267;85;21042;-81
2021/06/19 03:47:56;;;;;;;13.88;5.47;;;;;;;17.51;90.20;99039.50;1705705;84;21015;-82
2021/06/19 03:50:25;;;;;;;17.45;6.17;;;;;;;17.63;90.48;99048.50;1683820;84;21559;-81
2021/06/19 03:52:53;;;;;;;13.05;5.78;;;;;;;17.69;90.33;99042.91;1675984;84;21018;-81
2021/06/19 03:55:20;;;;;;;8.85;5.97;;;;;;;17.77;89.99;99045.11;1674885;84;21105;-80
2021/06/19 03:57:48;;;;;;;11.75;5.80;;;;;;;17.87;90.14;99042.38;1651334;85;21368;-81
2021/06/19 04:00:17;;;;;;;9.73;5.67;;;;;;;17.92;90.03;99044.27;1650973;85;21031;-81
2021/06/19 04:02:45;;;;;;;15.40;6.08;;;;;;;17.95;89.50;99049.37;1652764;86;21210;-81
2021/06/19 04:05:13;;;;;;;14.05;6.80;;;;;;;18.00;89.83;99042.52;1652394;85;21091;-81
2021/06/19 04:07:41;;;;;;;13.78;7.72;;;;;;;18.09;89.57;99042.02;1652289;86;21038;-81
2021/06/19 04:10:09;;;;;;;15.28;9.13;;;;;;;18.16;89.21;99049.91;1650880;85;21051;-80
2021/06/19 04:12:37;;;;;;;16.60;10.88;;;;;;;18.25;89.45;99032.30;1671538;85;21071;-81
2021/06/19 04:15:09;;;;;;;14.25;6.95;;;;;;;18.34;89.08;99039.28;1645950;85;21372;-80
2021/06/19 04:17:37;;;;;;;12.68;6.40;;;;;;;18.36;89.20;99036.09;1668768;85;21543;-81
2021/06/19 04:20:10;;;;;;;13.22;6.55;;;;;;;18.29;89.20;99037.77;1647810;85;21987;-81
2021/06/19 04:22:38;;;;;;;15.13;7.33;;;;;;;18.31;88.85;99040.31;1671384;85;21023;-80
2021/06/19 04:25:07;;;;;;;15.00;7.65;;;;;;;18.33;88.37;99042.39;1662972;85;21036;-82
2021/06/19 04:27:50;;;;;;;14.28;7.30;;;;;;;18.36;88.85;99046.62;1651813;86;21055;-81
2021/06/19 04:30:20;;;;;;;13.20;8.33;;;;;;;18.35;88.88;99040.98;1661148;85;22063;-82
2021/06/19 04:32:47;;;;;;;16.93;8.65;;;;;;;18.35;88.47;99047.09;1654218;85;21111;-82
2021/06/19 04:35:15;;;;;;;14.98;8.00;;;;;;;18.35;88.50;99040.52;1659597;85;21035;-81
2021/06/19 04:37:43;;;;;;;12.25;7.90;;;;;;;18.38;87.26;99044.30;1664103;85;21107;-82
2021/06/19 04:40:18;;;;;;;14.07;8.28;;;;;;;18.37;89.13;99040.43;1652897;85;21091;-80
2021/06/19 04:42:46;;;;;;;13.00;7.92;;;;;;;18.38;88.65;99043.42;1651685;86;21079;-80
2021/06/19 04:45:13;;;;;;;14.23;8.13;;;;;;;18.31;89.61;99040.31;1663657;85;21041;-81
2021/06/19 04:47:41;;;;;;;15.10;8.28;;;;;;;18.31;88.14;99042.95;1665275;85;21904;-81
2021/06/19 04:50:10;;;;;;;15.15;8.43;;;;;;;18.36;89.58;99042.19;1655727;85;21035;-80
2021/06/19 04:52:42;;;;;;;14.60;8.58;;;;;;;18.45;89.74;99043.46;1651944;85;21024;-80
2021/06/19 04:55:12;;;;;;;18.02;8.78;;;;;;;18.58;89.80;99034.36;1659982;85;21007;-82
2021/06/19 04:57:40;;;;;;;10.88;7.45;;;;;;;18.69;89.63;99037.22;1659214;84;21458;-83
2021/06/19 05:00:12;;;;;;;15.28;8.35;;;;;;;18.79;89.28;99033.57;1668608;85;21067;-81
2021/06/19 05:02:38;;;;;;;12.75;7.83;;;;;;;18.90;88.77;99038.21;1652701;85;21366;-81
2021/06/19 05:05:07;;;;;;;12.05;7.60;;;;;;;18.93;88.15;99041.52;1651324;85;21599;-80
2021/06/19 05:07:34;;;;;;;13.80;7.37;;;;;;;18.90;87.85;99044.80;1653476;85;21043;-80
2021/06/19 05:10:05;;;;;;;13.72;7.95;;;;;;;18.87;87.97;99034.83;1657544;85;21012;-80
2021/06/19 05:12:33;;;;;;;14.53;7.83;;;;;;;18.96;87.80;99044.42;1651590;85;21095;-80
2021/06/19 05:15:02;;;;;;;12.53;7.55;;;;;;;19.01;87.24;99033.16;1671407;85;21814;-79
2021/06/19 05:17:29;;;;;;;18.25;8.48;;;;;;;19.04;87.38;99036.94;1658251;85;21063;-85
2021/06/19 05:19:58;;;;;;;14.50;9.40;;;;;;;19.10;87.32;99033.05;1647952;85;21031;-79
2021/06/19 05:22:25;;;;;;;12.58;8.68;;;;;;;19.15;87.15;99037.58;1665675;85;21031;-80
2021/06/19 05:24:51;;;;;;;12.25;8.28;;;;;;;19.18;87.53;99036.06;1653749;85;21016;-79
2021/06/19 05:27:18;;;;;;;11.20;8.48;;;;;;;19.27;86.83;99039.45;1650414;86;21587;-79
2021/06/19 05:29:45;;;;;;;15.23;7.90;;;;;;;19.32;86.19;99037.84;1661627;85;22204;-79
2021/06/19 05:32:12;;;;;;;10.32;8.20;;;;;;;19.29;86.77;99036.25;1650446;86;21067;-79
2021/06/19 05:34:41;;;;;;;13.30;8.00;;;;;;;19.36;86.96;99036.70;1650249;85;21035;-80
2021/06/19 05:37:08;;;;;;;13.15;7.80;;;;;;;19.46;85.72;99041.81;1660656;85;21091;-79
2021/06/19 05:39:34;;;;;;;12.37;7.70;;;;;;;19.54;87.09;99042.66;1659683;85;21043;-79
2021/06/19 05:42:01;;;;;;;10.58;7.65;;;;;;;19.61;85.90;99042.63;1670335;85;21015;-79
2021/06/19 05:44:27;;;;;;;12.70;7.75;;;;;;;19.67;86.43;99045.70;1668173;85;21568;-79
2021/06/19 05:46:54;;;;;;;11.38;7.47;;;;;;;19.78;85.84;99045.55;1666669;85;21082;-80
2021/06/19 05:49:20;;;;;;;10.10;7.28;;;;;;;19.79;86.12;99041.95;1663524;85;21047;-80
2021/06/19 05:51:46;;;;;;;10.95;6.50;;;;;;;19.91;86.15;99041.16;1650305;86;21051;-79
2021/06/19 05:54:13;;;;;;;9.05;6.65;;;;;;;20.02;85.98;99041.33;1651512;85;21111;-80
2021/06/19 05:56:40;;;;;;;11.73;6.72;;;;;;;20.11;85.87;99047.78;1654073;85;21566;-79
2021/06/19 05:59:07;;;;;;;11.60;6.00;;;;;;;20.23;85.52;99048.33;1614867;87;21080;-78
2021/06/19 06:01:33;;;;;;;8.85;6.12;;;;;;;20.28;84.51;99045.86;1658068;85;21071;-78
2021/06/19 06:04:00;;;;;;;9.15;6.03;;;;;;;20.40;85.02;99049.84;1626297;87;21714;-80
2021/06/19 06:06:27;;;;;;;11.18;6.65;;;;;;;20.55;84.34;99051.08;1650564;87;21027;-79
2021/06/19 06:08:54;;;;;;;9.00;6.00;;;;;;;20.61;83.26;99060.81;1665013;85;21141;-79
2021/06/19 06:11:20;;;;;;;8.90;6.22;;;;;;;20.65;82.08;99056.14;1651319;85;21535;-80
2021/06/19 06:13:47;;;;;;;12.18;7.15;;;;;;;20.71;82.29;99054.44;1650137;85;21098;-80
2021/06/19 06:16:14;;;;;;;9.53;6.47;;;;;;;20.85;83.12;99054.83;1615735;87;21040;-79
2021/06/19 06:18:41;;;;;;;8.68;6.37;;;;;;;20.98;82.28;99056.14;1677323;85;21083;-79
2021/06/19 06:21:07;;;;;;;10.23;5.87;;;;;;;21.06;82.18;99050.69;1652840;85;21075;-79
2021/06/19 06:23:34;;;;;;;9.55;5.35;;;;;;;21.17;80.49;99060.53;1665166;85;21012;-79
2021/06/19 06:26:01;;;;;;;7.40;4.67;;;;;;;21.26;80.32;99057.71;1654412;85;21115;-79
2021/06/19 06:28:29;;;;;;;8.43;5.78;;;;;;;21.36;80.56;99059.24;1658974;85;21004;-79
2021/06/19 06:30:56;;;;;;;9.35;5.75;;;;;;;21.45;80.20;99058.16;1644106;85;21091;-79
2021/06/19 06:33:25;;;;;;;11.68;5.03;;;;;;;21.52;77.14;99063.00;1655876;85;21154;-79
2021/06/19 06:35:54;;;;;;;9.33;5.47;;;;;;;21.54;78.38;99057.96;1654149;85;21630;-78
2021/06/19 06:38:23;;;;;;;9.05;5.22;;;;;;;21.58;76.75;99055.47;1650945;85;21122;-82
2021/06/19 06:40:49;;;;;;;10.00;5.08;;;;;;;21.58;76.60;99055.95;1653642;85;21047;-78
2021/06/19 06:43:16;;;;;;;8.95;5.62;;;;;;;21.69;77.46;99055.20;1673021;85;21091;-78
2021/06/19 06:45:43;;;;;;;12.65;5.22;;;;;;;21.69;76.17;99052.08;1665447;85;21071;-79
2021/06/19 06:48:09;;;;;;;11.10;5.78;;;;;;;21.75;75.72;99052.12;1678408;85;21671;-78
2021/06/19 06:50:37;;;;;;;9.30;5.22;;;;;;;21.80;75.26;99049.97;1657426;85;21495;-80
2021/06/19 06:53:04;;;;;;;7.87;5.35;;;;;;;21.91;75.18;99057.14;1678624;85;21056;-80
2021/06/19 06:55:31;;;;;;;9.18;5.65;;;;;;;21.99;74.24;99037.58;1657718;85;21087;-80
2021/06/19 06:57:57;;;;;;;9.23;5.65;;;;;;;22.05;73.56;99048.55;1662682;85;21085;-80
2021/06/19 07:00:24;;;;;;;10.40;4.83;;;;;;;22.17;73.57;99043.32;1661810;85;21066;-80
2021/06/19 07:02:51;;;;;;;8.10;5.33;;;;;;;22.19;72.75;99043.56;1651616;85;22120;-81
2021/06/19 07:05:18;;;;;;;9.53;4.65;;;;;;;22.29;72.67;99049.06;1647992;85;21036;-80
2021/06/19 07:07:45;;;;;;;10.03;4.53;;;;;;;22.48;72.83;99043.70;1650557;85;21083;-81
2021/06/19 07:10:13;;;;;;;9.95;4.30;;;;;;;22.70;73.23;99046.44;1660733;85;21035;-80
2021/06/19 07:12:45;;;;;;;8.38;4.35;;;;;;;22.93;72.67;99039.84;1650118;87;21016;-80
2021/06/19 07:15:14;;;;;;;7.03;4.80;;;;;;;23.15;72.29;99043.03;1649067;85;21043;-80
2021/06/19 07:17:41;;;;;;;7.05;4.15;;;;;;;23.35;70.76;99038.81;1646484;86;21095;-81
2021/06/19 07:20:11;;;;;;;7.45;4.30;;;;;;;23.47;66.73;99041.81;1656881;85;21023;-81
2021/06/19 07:22:37;;;;;;;6.65;3.87;;;;;;;23.68;68.60;99037.95;1646550;86;21023;-82
2021/06/19 07:25:07;;;;;;;5.97;3.85;;;;;;;23.83;64.99;99039.86;1640523;85;21575;-82
2021/06/19 07:27:34;;;;;;;6.00;3.77;;;;;;;23.95;64.43;99040.19;1668578;85;21043;-81
2021/06/19 07:30:01;;;;;;;11.60;4.22;;;;;;;24.15;65.94;99043.91;1669881;85;21071;-80
2021/06/19 07:32:27;;;;;;;6.97;3.83;;;;;;;24.30;63.78;99039.13;1678875;85;22034;-81
2021/06/19 07:34:54;;;;;;;7.20;4.42;;;;;;;24.31;64.06;99047.46;1664693;85;21043;-81
2021/06/19 07:37:20;;;;;;;6.30;4.42;;;;;;;24.36;61.78;99037.28;1664003;85;22022;-82
2021/06/19 07:39:47;;;;;;;5.60;4.00;;;;;;;24.51;62.85;99038.32;1667529;85;21059;-81
2021/06/19 07:42:14;;;;;;;5.40;3.70;;;;;;;24.44;62.24;99041.13;1652090;86;21008;-80
2021/06/19 07:44:40;;;;;;;8.08;3.90;;;;;;;24.43;63.84;99038.92;1651556;85;21059;-81
2021/06/19 07:47:07;;;;;;;6.33;3.50;;;;;;;24.45;63.02;99037.48;1649474;86;21091;-80
2021/06/19 07:49:34;;;;;;;6.12;3.85;;;;;;;24.55;63.43;99033.97;1649206;85;21625;-81
2021/06/19 07:52:03;;;;;;;6.53;3.70;;;;;;;24.53;60.73;99031.93;1656174;85;21487;-81
2021/06/19 07:54:29;;;;;;;5.28;3.27;;;;;;;24.59;61.35;99026.09;1671018;85;21119;-80
2021/06/19 07:56:56;;;;;;;5.10;3.30;;;;;;;24.67;61.57;99026.78;1617773;87;21103;-80
2021/06/19 07:59:23;;;;;;;4.72;3.10;;;;;;;24.70;59.56;99026.50;1634790;86;21070;-81
2021/06/19 08:01:49;;;;;;;5.80;3.20;;;;;;;24.73;61.40;99020.08;1636949;86;21147;-82
2021/06/19 08:04:16;;;;;;;4.60;2.80;;;;;;;24.80;60.14;99015.94;1653264;86;21372;-81
2021/06/19 08:06:42;;;;;;;6.20;2.80;;;;;;;24.79;58.13;99018.25;1636221;86;21095;-81
2021/06/19 08:09:08;;;;;;;4.47;2.90;;;;;;;24.81;58.28;99029.10;1649294;86;21124;-80
2021/06/19 08:11:35;;;;;;;3.35;2.47;;;;;;;24.76;59.85;99023.81;1674248;85;21004;-80
2021/06/19 08:14:01;;;;;;;4.15;2.45;;;;;;;24.79;58.22;99017.75;1647694;86;21204;-80
2021/06/19 08:16:28;;;;;;;4.90;2.42;;;;;;;24.83;58.41;99018.81;1634425;86;21567;-80
2021/06/19 08:18:55;;;;;;;4.62;2.25;;;;;;;24.88;58.34;99020.59;1678620;85;21075;-80
2021/06/19 08:21:21;;;;;;;3.37;2.30;;;;;;;24.90;58.02;99013.33;1660044;85;21012;-80
2021/06/19 08:23:48;;;;;;;6.03;2.17;;;;;;;24.98;58.20;99014.84;1693670;85;21038;-79
2021/06/19 08:26:14;;;;;;;4.20;2.45;;;;;;;25.08;55.73;99019.72;1659536;85;21015;-80
2021/06/19 08:28:41;;;;;;;3.42;1.87;;;;;;;25.24;55.30;99018.42;1665264;85;21104;-80
2021/06/19 08:31:07;;;;;;;6.70;2.22;;;;;;;25.37;54.75;99019.05;1670554;85;21014;-79
2021/06/19 08:33:34;;;;;;;3.70;2.22;;;;;;;25.52;56.51;99019.00;1641773;86;21051;-80
2021/06/19 08:36:01;;;;;;;5.80;2.37;;;;;;;25.68;55.45;99020.31;1670456;85;21105;-80
2021/06/19 08:38:27;;;;;;;3.47;2.27;;;;;;;25.64;54.01;99020.23;1659003;85;21884;-80
2021/06/19 08:40:54;;;;;;;4.97;2.10;;;;;;;25.66;54.77;99021.77;1670897;84;21018;-80
2021/06/19 08:43:21;;;;;;;4.30;2.25;;;;;;;25.76;54.27;99025.78;1655773;86;21059;-80
2021/06/19 08:45:50;;;;;;;3.60;1.90;;;;;;;25.80;50.77;99025.86;1638244;86;21046;-80
2021/06/19 08:48:19;;;;;;;5.22;2.22;;;;;;;25.81;51.60;99020.91;1635095;86;21038;-80
2021/06/19 08:50:48;;;;;;;4.55;1.90;;;;;;;25.82;51.82;99019.08;1672278;85;21622;-80
2021/06/19 08:53:18;;;;;;;4.83;1.85;;;;;;;25.95;52.28;99013.88;1672853;85;20980;-79
2021/06/19 08:55:46;;;;;;;4.35;1.92;;;;;;;26.14;50.25;99013.53;1666671;85;21538;-79
2021/06/19 08:58:12;;;;;;;3.33;1.90;;;;;;;26.12;45.74;99008.83;1635750;87;21078;-80
2021/06/19 09:00:39;;;;;;;3.08;2.00;;;;;;;26.15;46.97;99011.23;1647009;86;21003;-79
2021/06/19 09:03:19;;;;;;;2.72;1.70;;;;;;;26.13;48.72;99012.69;1651580;86;21087;-80
2021/06/19 09:05:46;;;;;;;4.80;2.02;;;;;;;26.27;49.29;99007.44;1646638;86;21051;-79
2021/06/19 09:08:12;;;;;;;6.03;2.10;;;;;;;26.44;49.60;99007.70;1640392;86;21622;-80
2021/06/19 09:10:39;;;;;;;4.42;2.10;;;;;;;26.65;50.04;98999.08;1641910;86;21110;-80
2021/06/19 09:13:12;;;;;;;4.03;2.00;;;;;;;26.76;49.00;98998.92;1648437;86;21035;-80
2021/06/19 09:15:50;;;;;;;6.45;2.37;;;;;;;26.89;49.58;99008.42;1646934;86;21130;-80
2021/06/19 09:18:28;;;;;;;4.00;2.10;;;;;;;27.01;49.34;99007.76;1619903;87;21635;-80
2021/06/19 09:21:03;;;;;;;4.72;2.00;;;;;;;27.20;48.87;99011.69;1643023;86;21070;-80
2021/06/19 09:23:35;;;;;;;4.20;1.90;;;;;;;27.42;49.02;99005.66;1631516;86;21103;-81
2021/06/19 09:26:14;;;;;;;;;;;;;;;27.53;45.84;99010.78;1649749;86;21023;-80
2021/06/19 09:28:57;;;;;;;2.40;1.60;;;;;;;27.67;45.13;99004.09;1632864;86;20484;-80
2021/06/19 09:31:47;;;;;;;5.30;2.10;;;;;;;27.75;47.80;99002.37;1618993;87;21523;-80
2021/06/19 09:34:19;;;;;;;4.35;1.90;;;;;;;27.76;47.79;99002.70;1656226;86;21303;-80
2021/06/19 09:36:51;;;;;;;2.98;1.87;;;;;;;27.71;46.05;99000.13;1644919;86;21088;-80
2021/06/19 09:39:25;;;;;;;3.95;2.00;;;;;;;27.63;46.57;99003.55;1657512;86;21062;-79
2021/06/19 09:41:56;;;;;;;3.95;1.65;;;;;;;27.58;46.59;99005.34;1645440;86;21289;-80
2021/06/19 09:44:38;;;;;;;3.05;1.90;;;;;;;27.67;46.89;98998.25;1650869;86;21050;-80
2021/06/19 09:47:09;;;;;;;4.83;1.80;;;;;;;27.69;44.47;99000.78;1620717;87;21496;-80
2021/06/19 09:49:42;;;;;;;3.22;1.80;;;;;;;27.74;45.67;98997.17;1657324;86;21055;-79
2021/06/19 09:52:12;;;;;;;3.98;2.00;;;;;;;27.86;45.45;98997.80;1658122;86;20995;-80
2021/06/19 09:54:40;;;;;;;3.30;1.90;;;;;;;28.09;45.83;99003.55;1656504;86;21047;-79
2021/06/19 09:57:13;;;;;;;3.98;1.98;;;;;;;28.22;45.35;99000.00;1645265;86;21040;-80
2021/06/19 09:59:41;;;;;;;2.50;1.65;;;;;;;28.44;45.41;99001.34;1632674;85;21013;-80
2021/06/19 10:02:18;;;;;;;4.58;1.62;;;;;;;28.63;44.40;98996.83;1655725;85;21935;-80
2021/06/19 10:04:52;;;;;;;4.10;1.70;;;;;;;28.90;44.14;99002.02;1649390;85;21047;-81
2021/06/19 10:07:21;;;;;;;5.75;2.00;;;;;;;29.15;41.85;98996.85;1653194;87;21063;-81
2021/06/19 10:09:52;;;;;;;5.80;2.00;;;;;;;29.35;42.92;98986.73;1653210;85;21127;-81
2021/06/19 10:12:28;;;;;;;5.87;1.87;;;;;;;29.44;41.76;98991.09;1670385;85;21067;-80
2021/06/19 10:15:05;;;;;;;10.08;3.08;;;;;;;29.63;42.16;98988.66;1666840;85;21096;-80
2021/06/19 10:17:36;;;;;;;11.65;3.20;;;;;;;29.76;42.18;98990.89;1653086;85;21038;-80
2021/06/19 10:20:07;;;;;;;9.05;1.98;;;;;;;29.50;39.80;98986.94;1648739;85;21177;-80
2021/06/19 10:22:37;;;;;;;9.20;2.60;;;;;;;29.32;39.77;98980.34;1651636;85;21530;-80
2021/06/19 10:25:09;;;;;;;6.65;1.90;;;;;;;29.30;39.41;98975.14;1651518;85;21054;-79
2021/06/19 10:27:44;;;;;;;4.35;2.05;;;;;;;29.45;39.45;98982.59;1630110;87;21039;-79
2021/06/19 10:30:13;;;;;;;3.35;1.65;;;;;;;29.58;39.60;98972.73;1644491;85;21039;-79
2021/06/19 10:32:51;;;;;;;2.37;1.42;;;;;;;29.73;39.56;98975.98;1650687;86;21004;-80
2021/06/19 10:35:22;;;;;;;1.98;1.27;;;;;;;29.86;37.45;98971.47;1671202;85;21115;-81
2021/06/19 10:37:51;;;;;;;2.55;1.30;;;;;;;29.91;39.07;98973.17;1678946;85;22222;-79
2021/06/19 10:40:23;;;;;;;2.67;1.40;;;;;;;29.87;37.38;98981.72;1670499;85;21027;-80
2021/06/19 10:42:52;;;;;;;3.45;1.30;;;;;;;29.95;37.80;98971.00;1675797;85;21027;-80
2021/06/19 10:45:23;;;;;;;2.75;1.40;;;;;;;29.82;36.09;98973.31;1664420;85;21111;-80
2021/06/19 10:48:07;;;;;;;8.03;2.83;;;;;;;29.72;38.13;98975.66;1667295;85;21079;-80
2021/06/19 10:50:38;;;;;;;9.30;3.58;;;;;;;29.63;37.99;98980.63;1646634;85;21040;-80
2021/06/19 10:53:09;;;;;;;8.05;2.52;;;;;;;29.65;38.53;98979.95;1623675;87;21087;-79
2021/06/19 10:55:50;;;;;;;8.55;2.77;;;;;;;29.83;38.22;98981.20;1659410;85;21051;-80
2021/06/19 10:58:23;;;;;;;7.17;2.47;;;;;;;29.95;38.02;98976.36;1664434;85;21095;-80
2021/06/19 11:00:53;;;;;;;11.38;2.45;;;;;;;30.05;35.80;98971.67;1659925;85;21087;-80
2021/06/19 11:03:47;;;;;;;9.75;2.58;;;;;;;30.13;38.08;98967.66;1653006;85;21059;-80
2021/06/19 11:06:28;;;;;;;10.38;2.22;;;;;;;30.22;35.73;98971.19;1613268;87;21591;-80
2021/06/19 11:09:16;;;;;;;2.70;1.30;;;;;;;30.22;37.81;98967.66;1651156;86;21039;-80
2021/06/19 11:11:54;;;;;;;4.55;1.45;;;;;;;30.37;37.27;98964.67;1647089;85;21032;-79
2021/06/19 11:14:46;;;;;;;3.55;1.30;;;;;;;30.59;37.85;98965.81;1668209;85;21513;-80
2021/06/19 11:17:25;;;;;;;4.47;1.80;;;;;;;30.38;37.03;98967.70;1664579;85;20993;-81
2021/06/19 11:20:01;;;;;;;9.23;1.98;;;;;;;29.81;36.29;98965.79;1669999;85;21083;-80
2021/06/19 11:22:55;;;;;;;7.70;2.50;;;;;;;29.63;35.78;98959.19;1642899;85;21051;-81
2021/06/19 11:25:38;;;;;;;11.08;2.60;;;;;;;29.64;37.36;98967.55;1652253;85;21107;-80
2021/06/19 11:28:20;;;;;;;7.03;1.70;;;;;;;29.76;37.71;98954.72;1650389;85;21047;-80
2021/06/19 11:30:51;;;;;;;8.58;2.27;;;;;;;29.89;37.82;98955.08;1648223;85;21035;-80
2021/06/19 11:33:26;;;;;;;3.47;1.60;;;;;;;30.23;37.27;98951.41;1612560;89;21088;-80
2021/06/19 11:36:07;;;;;;;3.72;1.25;;;;;;;30.38;36.99;98956.11;1651129;85;21713;-80
2021/06/19 11:38:49;;;;;;;5.53;2.33;;;;;;;30.36;35.79;98956.78;1658290;85;21619;-79